createdAt,value
2019-03-28T00:00:03.065Z,4.58
2019-03-28T00:02:31.108Z,5.40
2019-03-28T00:04:59.133Z,5.30
2019-03-28T00:07:27.173Z,4.95
2019-03-28T00:09:55.187Z,4.90
2019-03-28T00:12:23.232Z,5.08
2019-03-28T00:14:51.231Z,4.53
2019-03-28T00:17:19.262Z,6.37
2019-03-28T00:19:47.351Z,4.83
2019-03-28T00:22:17.346Z,5.80
2019-03-28T00:24:47.260Z,5.42
2019-03-28T00:27:15.463Z,5.25
2019-03-28T00:29:43.526Z,4.87
2019-03-28T00:32:11.529Z,4.72
2019-03-28T00:34:39.575Z,5.05
2019-03-28T00:37:07.890Z,4.85
2019-03-28T00:39:36.646Z,4.90
2019-03-28T00:42:04.681Z,4.70
2019-03-28T00:44:32.764Z,4.22
2019-03-28T00:47:00.794Z,4.60
2019-03-28T00:49:28.831Z,6.08
2019-03-28T00:51:57.009Z,4.70
2019-03-28T00:54:25.072Z,5.58
2019-03-28T00:56:53.322Z,5.45
2019-03-28T00:59:21.501Z,4.30
2019-03-28T01:01:49.561Z,5.53
2019-03-28T01:04:17.599Z,5.00
2019-03-28T01:06:45.618Z,4.70
2019-03-28T01:09:13.636Z,4.40
2019-03-28T01:11:41.755Z,4.47
2019-03-28T01:14:09.768Z,4.33
2019-03-28T01:16:37.804Z,4.37
2019-03-28T01:19:05.811Z,5.50
2019-03-28T01:21:33.840Z,4.92
2019-03-28T01:24:01.855Z,4.85
2019-03-28T01:26:29.905Z,4.17
2019-03-28T01:28:57.968Z,5.42
2019-03-28T01:31:26.000Z,4.95
2019-03-28T01:33:54.063Z,4.75
2019-03-28T01:36:22.100Z,4.30
2019-03-28T01:38:50.117Z,4.15
2019-03-28T01:41:18.167Z,4.90
2019-03-28T01:43:46.167Z,3.98
2019-03-28T01:46:14.220Z,5.25
2019-03-28T01:48:42.235Z,4.28
2019-03-28T01:51:10.266Z,4.55
2019-03-28T01:53:38.388Z,4.47
2019-03-28T01:56:06.400Z,4.78
2019-03-28T01:58:34.420Z,5.60
2019-03-28T02:01:02.949Z,3.90
2019-03-28T02:03:31.043Z,4.08
2019-03-28T02:05:59.090Z,4.85
2019-03-28T02:08:27.086Z,4.05
2019-03-28T02:10:55.115Z,4.15
2019-03-28T02:13:23.131Z,4.45
2019-03-28T02:15:52.797Z,4.05
2019-03-28T02:18:20.799Z,4.10
2019-03-28T02:20:48.811Z,3.98
2019-03-28T02:23:16.853Z,5.45
2019-03-28T02:25:44.860Z,4.42
2019-03-28T02:28:12.887Z,3.98
2019-03-28T02:30:40.911Z,4.25
2019-03-28T02:33:09.042Z,4.92
2019-03-28T02:35:37.106Z,4.58
2019-03-28T02:38:05.239Z,4.00
2019-03-28T02:40:33.296Z,3.52
2019-03-28T02:43:01.357Z,3.70
2019-03-28T02:45:30.061Z,3.90
2019-03-28T02:47:58.387Z,4.70
2019-03-28T02:50:26.456Z,4.55
2019-03-28T02:52:54.484Z,4.08
2019-03-28T02:55:23.697Z,3.77
2019-03-28T02:57:51.902Z,4.20
2019-03-28T03:00:20.855Z,4.10
2019-03-28T03:02:49.259Z,3.60
2019-03-28T03:05:17.312Z,4.60
2019-03-28T03:07:45.306Z,4.00
2019-03-28T03:10:13.432Z,3.42
2019-03-28T03:12:41.463Z,4.12
2019-03-28T03:15:09.518Z,3.75
2019-03-28T03:17:37.811Z,4.30
2019-03-28T03:20:06.724Z,3.98
2019-03-28T03:22:34.783Z,4.33
2019-03-28T03:25:03.467Z,4.60
2019-03-28T03:27:31.462Z,3.58
2019-03-28T03:29:59.495Z,3.55
2019-03-28T03:32:27.512Z,3.62
2019-03-28T03:34:55.550Z,3.47
2019-03-28T03:37:23.608Z,4.75
2019-03-28T03:39:51.644Z,3.92
2019-03-28T03:42:19.749Z,3.67
2019-03-28T03:44:47.792Z,3.80
2019-03-28T03:47:15.811Z,3.80
2019-03-28T03:49:43.844Z,3.27
2019-03-28T03:52:11.847Z,3.75
2019-03-28T03:54:39.885Z,3.58
2019-03-28T03:57:07.925Z,3.62
2019-03-28T03:59:36.036Z,3.45
2019-03-28T04:02:04.086Z,3.47
2019-03-28T04:04:32.107Z,4.58
2019-03-28T04:07:00.136Z,3.62
2019-03-28T04:09:28.140Z,3.60
2019-03-28T04:11:56.205Z,4.03
2019-03-28T04:14:24.246Z,3.65
2019-03-28T04:16:52.269Z,3.50
2019-03-28T04:19:20.292Z,4.45
2019-03-28T04:21:48.330Z,3.47
2019-03-28T04:24:16.330Z,3.12
2019-03-28T04:26:44.372Z,5.15
2019-03-28T04:29:12.385Z,3.87
2019-03-28T04:31:40.427Z,3.35
2019-03-28T04:34:09.534Z,3.40
2019-03-28T04:36:37.863Z,3.67
2019-03-28T04:39:05.879Z,3.50
2019-03-28T04:41:33.927Z,3.47
2019-03-28T04:44:01.937Z,3.60
2019-03-28T04:46:29.985Z,3.65
2019-03-28T04:48:57.984Z,3.60
2019-03-28T04:51:26.012Z,3.20
2019-03-28T04:53:56.353Z,3.55
2019-03-28T04:56:23.778Z,3.30
2019-03-28T04:58:51.797Z,3.60
2019-03-28T05:01:19.838Z,3.42
2019-03-28T05:03:47.908Z,3.50
2019-03-28T05:06:15.969Z,3.58
2019-03-28T05:08:44.087Z,3.42
2019-03-28T05:11:12.096Z,5.03
2019-03-28T05:13:40.116Z,3.40
2019-03-28T05:16:08.159Z,3.27
2019-03-28T05:18:36.190Z,3.12
2019-03-28T05:21:04.205Z,3.12
2019-03-28T05:23:32.249Z,3.33
2019-03-28T05:26:00.263Z,4.47
2019-03-28T05:28:28.532Z,3.10
2019-03-28T05:30:56.864Z,3.35
2019-03-28T05:33:24.896Z,3.00
2019-03-28T05:35:52.914Z,3.65
2019-03-28T05:38:20.970Z,3.00
2019-03-28T05:40:48.983Z,3.35
2019-03-28T05:43:17.015Z,3.05
2019-03-28T05:45:47.514Z,3.30
2019-03-28T05:48:14.796Z,3.00
2019-03-28T05:50:42.895Z,3.65
2019-03-28T05:53:10.935Z,3.12
2019-03-28T05:55:39.059Z,3.17
2019-03-28T05:58:09.513Z,3.02
2019-03-28T06:00:39.013Z,2.92
2019-03-28T06:03:06.667Z,6.17
2019-03-28T06:05:34.718Z,7.87
2019-03-28T06:08:02.749Z,14.70
2019-03-28T06:10:30.775Z,7.62
2019-03-28T06:12:58.806Z,6.28
2019-03-28T06:15:26.903Z,6.33
2019-03-28T06:17:55.468Z,5.50
2019-03-28T06:20:23.523Z,6.53
2019-03-28T06:22:51.535Z,6.65
2019-03-28T06:25:19.611Z,6.65
2019-03-28T06:27:47.795Z,4.40
2019-03-28T06:30:15.899Z,5.12
2019-03-28T06:32:43.915Z,3.50
2019-03-28T06:35:12.010Z,3.95
2019-03-28T06:37:40.079Z,3.60
2019-03-28T06:40:08.211Z,8.38
2019-03-28T06:42:36.231Z,9.05
2019-03-28T06:45:07.210Z,5.72
2019-03-28T06:47:35.228Z,6.20
2019-03-28T06:50:04.578Z,7.20
2019-03-28T06:52:32.629Z,6.58
2019-03-28T06:55:00.673Z,7.50
2019-03-28T06:57:28.680Z,6.80
2019-03-28T06:59:56.736Z,8.43
2019-03-28T07:02:24.774Z,7.12
2019-03-28T07:04:52.807Z,7.60
2019-03-28T07:07:20.837Z,10.48
2019-03-28T07:09:48.928Z,8.35
2019-03-28T07:12:17.013Z,9.10
2019-03-28T07:14:45.469Z,9.70
2019-03-28T07:17:13.507Z,7.75
2019-03-28T07:19:41.521Z,6.85
2019-03-28T07:22:10.279Z,7.47
2019-03-28T07:24:38.472Z,7.05
2019-03-28T07:27:06.517Z,11.65
2019-03-28T07:29:34.520Z,8.18
2019-03-28T07:32:02.565Z,11.05
2019-03-28T07:34:30.601Z,9.70
2019-03-28T07:36:58.752Z,9.63
2019-03-28T07:39:26.753Z,8.88
2019-03-28T07:41:54.795Z,6.28
2019-03-28T07:44:22.864Z,7.40
2019-03-28T07:46:50.928Z,8.70
2019-03-28T07:49:19.988Z,7.70
2019-03-28T07:51:48.275Z,7.12
2019-03-28T07:54:16.279Z,8.43
2019-03-28T07:56:44.332Z,8.08
2019-03-28T07:59:12.342Z,7.28
2019-03-28T08:01:40.351Z,6.35
2019-03-28T08:04:08.408Z,7.05
2019-03-28T08:06:48.795Z,7.95
2019-03-28T08:09:07.839Z,8.45
2019-03-28T08:11:35.955Z,8.53
2019-03-28T08:14:04.237Z,10.40
2019-03-28T08:16:32.264Z,7.33
2019-03-28T08:19:00.287Z,7.75
2019-03-28T08:21:28.379Z,7.80
2019-03-28T08:23:56.442Z,7.80
2019-03-28T08:26:24.458Z,8.43
2019-03-28T08:28:52.515Z,8.35
2019-03-28T08:31:22.488Z,6.92
2019-03-28T08:33:50.271Z,6.53
2019-03-28T08:36:18.279Z,8.40
2019-03-28T08:38:46.373Z,8.43
2019-03-28T08:41:14.485Z,6.45
2019-03-28T08:43:42.745Z,7.67
2019-03-28T08:46:11.006Z,9.03
2019-03-28T08:48:39.119Z,8.38
2019-03-28T08:51:07.139Z,7.10
2019-03-28T08:53:35.162Z,7.17
2019-03-28T08:56:03.199Z,5.40
2019-03-28T08:58:31.271Z,6.00
2019-03-28T09:00:59.312Z,6.37
2019-03-28T09:03:27.333Z,5.80
2019-03-28T09:05:55.384Z,7.12
2019-03-28T09:08:23.644Z,6.42
2019-03-28T09:10:51.682Z,5.42
2019-03-28T09:13:19.696Z,5.87
2019-03-28T09:15:47.744Z,5.20
2019-03-28T09:18:15.843Z,5.15
2019-03-28T09:20:43.873Z,5.35
2019-03-28T09:23:11.887Z,6.75
2019-03-28T09:25:39.939Z,5.45
2019-03-28T09:28:07.943Z,5.28
2019-03-28T09:30:48.185Z,4.65
2019-03-28T09:33:06.793Z,5.97
2019-03-28T09:35:34.944Z,4.62
2019-03-28T09:38:03.028Z,6.65
2019-03-28T09:40:31.055Z,5.85
2019-03-28T09:42:59.063Z,4.35
2019-03-28T09:45:28.733Z,6.08
2019-03-28T09:47:56.744Z,5.03
2019-03-28T09:50:24.775Z,5.45
2019-03-28T09:52:53.069Z,6.28
2019-03-28T09:55:21.262Z,5.03
2019-03-28T09:57:49.352Z,4.47
2019-03-28T10:00:18.007Z,5.70
2019-03-28T10:02:46.046Z,4.20
2019-03-28T10:05:14.066Z,4.15
2019-03-28T10:07:42.104Z,5.50
2019-03-28T10:10:10.110Z,4.92
2019-03-28T10:12:38.224Z,3.95
2019-03-28T10:15:06.689Z,5.58
2019-03-28T10:17:34.764Z,3.98
2019-03-28T10:20:02.763Z,4.55
2019-03-28T10:22:30.896Z,3.27
2019-03-28T10:24:58.917Z,4.42
2019-03-28T10:27:26.956Z,3.67
2019-03-28T10:29:54.968Z,4.75
2019-03-28T10:32:23.175Z,3.83
2019-03-28T10:34:51.230Z,4.65
2019-03-28T10:37:19.255Z,4.45
2019-03-28T10:39:47.288Z,3.98
2019-03-28T10:42:15.309Z,3.40
2019-03-28T10:44:43.341Z,4.08
2019-03-28T10:47:11.396Z,4.33
2019-03-28T10:49:39.410Z,4.05
2019-03-28T10:52:07.519Z,4.80
2019-03-28T10:54:35.552Z,4.22
2019-03-28T10:57:13.711Z,3.95
2019-03-28T10:59:33.390Z,4.08
2019-03-28T11:02:01.481Z,3.50
2019-03-28T11:04:29.664Z,3.47
2019-03-28T11:06:58.518Z,3.98
2019-03-28T11:09:26.599Z,3.58
2019-03-28T11:11:54.612Z,3.83
2019-03-28T11:14:22.657Z,3.95
2019-03-28T11:16:50.691Z,3.20
2019-03-28T11:19:18.802Z,3.90
2019-03-28T11:21:46.883Z,2.98
2019-03-28T11:24:14.947Z,3.62
2019-03-28T11:26:42.952Z,4.72
2019-03-28T11:29:11.031Z,3.87
2019-03-28T11:31:46.135Z,4.75
2019-03-28T11:34:08.875Z,3.98
2019-03-28T11:36:36.980Z,3.95
2019-03-28T11:39:06.419Z,3.67
2019-03-28T11:41:34.668Z,3.33
2019-03-28T11:44:02.833Z,2.67
2019-03-28T11:46:30.851Z,3.47
2019-03-28T11:48:58.905Z,3.70
2019-03-28T11:51:26.996Z,3.72
2019-03-28T11:53:55.036Z,3.37
2019-03-28T11:56:23.055Z,3.55
2019-03-28T11:58:51.077Z,4.95
2019-03-28T12:01:19.163Z,4.58
2019-03-28T12:03:47.171Z,2.55
2019-03-28T12:06:15.205Z,8.65
2019-03-28T12:08:43.234Z,3.37
2019-03-28T12:11:11.278Z,4.05
2019-03-28T12:13:45.043Z,4.53
2019-03-28T12:16:09.081Z,3.20
2019-03-28T12:18:37.110Z,2.72
2019-03-28T12:21:05.230Z,4.42
2019-03-28T12:23:33.291Z,3.12
2019-03-28T12:26:01.355Z,4.85
2019-03-28T12:28:29.429Z,3.42
2019-03-28T12:30:57.483Z,4.22
2019-03-28T12:33:25.480Z,2.85
2019-03-28T12:35:53.511Z,4.72
2019-03-28T12:38:21.567Z,3.35
2019-03-28T12:40:49.702Z,3.00
2019-03-28T12:43:17.740Z,4.53
2019-03-28T12:45:45.778Z,3.33
2019-03-28T12:48:13.787Z,3.05
2019-03-28T12:50:41.969Z,2.72
2019-03-28T12:53:10.943Z,3.12
2019-03-28T12:55:39.043Z,2.80
2019-03-28T12:58:07.050Z,3.00
2019-03-28T13:00:35.703Z,3.40
2019-03-28T13:03:03.735Z,3.70
2019-03-28T13:05:34.579Z,2.92
2019-03-28T13:08:01.499Z,5.10
2019-03-28T13:10:29.515Z,2.62
2019-03-28T13:12:57.643Z,3.42
2019-03-28T13:15:25.677Z,3.02
2019-03-28T13:17:53.768Z,3.65
2019-03-28T13:20:22.409Z,2.85
2019-03-28T13:22:51.986Z,3.45
2019-03-28T13:25:20.208Z,4.33
2019-03-28T13:27:48.351Z,2.95
2019-03-28T13:30:16.378Z,3.80
2019-03-28T13:32:44.412Z,3.10
2019-03-28T13:35:12.428Z,2.55
2019-03-28T13:37:40.456Z,2.90
2019-03-28T13:40:08.483Z,3.98
2019-03-28T13:42:36.792Z,3.42
2019-03-28T13:45:07.661Z,2.47
2019-03-28T13:47:35.686Z,2.95
2019-03-28T13:50:07.509Z,3.20
2019-03-28T13:52:35.650Z,3.35
2019-03-28T13:55:04.519Z,2.40
2019-03-28T13:57:32.529Z,3.33
2019-03-28T14:00:00.556Z,2.50
2019-03-28T14:02:28.584Z,3.00
2019-03-28T14:04:56.617Z,2.60
2019-03-28T14:07:24.653Z,2.47
2019-03-28T14:09:52.672Z,3.00
2019-03-28T14:12:23.318Z,2.30
2019-03-28T14:14:50.524Z,2.58
2019-03-28T14:17:19.604Z,2.80
2019-03-28T14:19:47.861Z,2.35
2019-03-28T14:22:18.148Z,2.90
2019-03-28T14:24:45.655Z,2.85
2019-03-28T14:27:13.709Z,2.42
2019-03-28T14:29:42.621Z,2.87
2019-03-28T14:32:10.850Z,2.62
2019-03-28T14:34:39.919Z,2.65
2019-03-28T14:37:08.141Z,3.10
2019-03-28T14:39:36.192Z,2.95
2019-03-28T14:42:04.271Z,3.05
2019-03-28T14:44:32.318Z,2.85
2019-03-28T14:47:00.344Z,2.40
2019-03-28T14:49:28.376Z,2.27
2019-03-28T14:51:56.391Z,3.42
2019-03-28T14:54:24.429Z,2.95
2019-03-28T14:56:52.470Z,2.30
2019-03-28T14:59:31.857Z,2.50
2019-03-28T15:01:50.291Z,2.22
2019-03-28T15:04:18.397Z,2.47
2019-03-28T15:06:46.463Z,2.45
2019-03-28T15:09:14.685Z,2.35
2019-03-28T15:11:42.710Z,2.45
2019-03-28T15:14:10.806Z,2.92
2019-03-28T15:16:38.859Z,2.55
2019-03-28T15:19:06.900Z,3.15
2019-03-28T15:21:34.953Z,2.95
2019-03-28T15:24:02.960Z,2.17
2019-03-28T15:26:31.022Z,2.98
2019-03-28T15:28:59.114Z,2.17
2019-03-28T15:31:27.234Z,2.50
2019-03-28T15:33:55.472Z,2.50
2019-03-28T15:36:23.636Z,2.60
2019-03-28T15:38:51.676Z,2.92
2019-03-28T15:41:19.799Z,2.47
2019-03-28T15:43:47.820Z,2.92
2019-03-28T15:46:15.912Z,2.62
2019-03-28T15:48:43.970Z,2.50
2019-03-28T15:51:12.062Z,2.77
2019-03-28T15:53:40.103Z,2.95
2019-03-28T15:56:08.218Z,2.17
2019-03-28T15:58:36.276Z,2.40
2019-03-28T16:01:04.348Z,3.35
2019-03-28T16:03:32.387Z,2.27
2019-03-28T16:06:00.407Z,2.17
2019-03-28T16:08:28.476Z,2.20
2019-03-28T16:10:56.493Z,2.62
2019-03-28T16:13:24.559Z,2.98
2019-03-28T16:15:53.004Z,2.12
2019-03-28T16:18:21.163Z,2.45
2019-03-28T16:20:50.040Z,2.22
2019-03-28T16:23:18.972Z,2.22
2019-03-28T16:25:47.003Z,1.92
2019-03-28T16:28:15.039Z,2.80
2019-03-28T16:30:43.135Z,2.30
2019-03-28T16:33:11.206Z,2.98
2019-03-28T16:35:39.419Z,2.25
2019-03-28T16:38:07.458Z,2.35
2019-03-28T16:40:35.503Z,2.10
2019-03-28T16:43:03.534Z,2.20
2019-03-28T16:45:31.600Z,2.52
2019-03-28T16:47:59.608Z,2.62
2019-03-28T16:50:27.656Z,2.08
2019-03-28T16:52:55.668Z,2.20
2019-03-28T16:55:26.590Z,2.37
2019-03-28T16:57:53.928Z,2.20
2019-03-28T17:00:23.892Z,2.25
2019-03-28T17:02:52.066Z,2.40
2019-03-28T17:05:20.180Z,2.00
2019-03-28T17:07:48.198Z,2.10
2019-03-28T17:10:34.371Z,2.12
2019-03-28T17:13:02.431Z,2.12
2019-03-28T17:15:30.484Z,2.45
2019-03-28T17:17:58.536Z,2.12
2019-03-28T17:20:26.648Z,2.30
2019-03-28T17:22:54.672Z,2.15
2019-03-28T17:25:22.725Z,1.90
2019-03-28T17:27:50.745Z,2.00
2019-03-28T17:30:18.793Z,1.98
2019-03-28T17:32:46.821Z,1.82
2019-03-28T17:35:14.871Z,2.33
2019-03-28T17:37:42.920Z,2.10
2019-03-28T17:40:10.956Z,2.42
2019-03-28T17:42:38.981Z,2.17
2019-03-28T17:45:07.067Z,2.30
2019-03-28T17:47:35.171Z,2.75
2019-03-28T17:50:04.069Z,1.92
2019-03-28T17:52:32.131Z,2.72
2019-03-28T17:55:00.386Z,2.12
2019-03-28T17:57:28.469Z,2.22
2019-03-28T17:59:56.495Z,1.80
2019-03-28T18:02:24.602Z,2.47
2019-03-28T18:04:52.687Z,2.35
2019-03-28T18:07:20.723Z,1.70
2019-03-28T18:09:48.756Z,2.05
2019-03-28T18:12:16.799Z,2.02
2019-03-28T18:14:44.832Z,2.30
2019-03-28T18:17:12.860Z,2.27
2019-03-28T18:19:41.001Z,1.90
2019-03-28T18:22:12.137Z,1.87
2019-03-28T18:24:40.178Z,2.17
2019-03-28T18:27:08.281Z,2.10
2019-03-28T18:29:36.379Z,1.98
2019-03-28T18:32:04.422Z,1.90
2019-03-28T18:34:32.445Z,2.00
2019-03-28T18:37:00.500Z,2.40
2019-03-28T18:39:29.601Z,2.10
2019-03-28T18:41:57.770Z,2.22
2019-03-28T18:44:25.855Z,2.05
2019-03-28T18:46:53.879Z,1.85
2019-03-28T18:49:21.922Z,2.20
2019-03-28T18:51:49.939Z,6.60
2019-03-28T18:54:20.209Z,4.95
2019-03-28T18:56:47.993Z,6.08
2019-03-28T18:59:17.804Z,6.17
2019-03-28T19:01:45.826Z,8.03
2019-03-28T19:04:13.874Z,8.08
2019-03-28T19:06:41.909Z,5.70
2019-03-28T19:09:09.987Z,4.72
2019-03-28T19:11:40.791Z,6.67
2019-03-28T19:14:07.912Z,4.30
2019-03-28T19:16:35.960Z,4.10
2019-03-28T19:19:04.022Z,3.62
2019-03-28T19:21:32.071Z,3.22
2019-03-28T19:24:00.171Z,5.58
2019-03-28T19:26:28.191Z,4.42
2019-03-28T19:28:56.465Z,4.40
2019-03-28T19:31:24.624Z,3.30
2019-03-28T19:33:52.659Z,2.30
2019-03-28T19:36:20.710Z,4.70
2019-03-28T19:38:48.750Z,3.15
2019-03-28T19:41:16.920Z,2.40
2019-03-28T19:43:44.966Z,3.42
2019-03-28T19:46:12.986Z,3.45
2019-03-28T19:48:41.132Z,2.20
2019-03-28T19:51:09.169Z,3.45
2019-03-28T19:53:37.266Z,2.30
2019-03-28T19:56:05.319Z,3.70
2019-03-28T19:58:35.135Z,2.25
2019-03-28T20:01:03.232Z,2.60
2019-03-28T20:03:31.256Z,3.12
2019-03-28T20:05:59.334Z,3.35
2019-03-28T20:08:27.373Z,3.05
2019-03-28T20:10:55.400Z,3.25
2019-03-28T20:13:23.945Z,3.00
2019-03-28T20:15:52.216Z,2.40
2019-03-28T20:18:23.430Z,2.25
2019-03-28T20:20:51.452Z,1.90
2019-03-28T20:23:19.529Z,2.87
2019-03-28T20:25:47.611Z,3.40
2019-03-28T20:28:16.390Z,2.12
2019-03-28T20:30:44.704Z,1.95
2019-03-28T20:33:12.824Z,3.98
2019-03-28T20:35:40.856Z,2.77
2019-03-28T20:38:08.907Z,3.15
2019-03-28T20:40:37.073Z,3.30
2019-03-28T20:43:07.736Z,2.65
2019-03-28T20:45:35.064Z,2.30
2019-03-28T20:48:03.217Z,2.10
2019-03-28T20:50:31.811Z,2.20
2019-03-28T20:53:00.082Z,2.72
2019-03-28T20:55:29.906Z,1.77
2019-03-28T20:57:57.951Z,2.27
2019-03-28T21:00:30.563Z,2.27
2019-03-28T21:02:58.646Z,2.72
2019-03-28T21:05:26.693Z,1.80
2019-03-28T21:07:54.738Z,2.08
2019-03-28T21:10:23.656Z,1.98
2019-03-28T21:12:52.058Z,1.77
2019-03-28T21:15:20.175Z,1.90
2019-03-28T21:17:48.230Z,1.77
2019-03-28T21:20:16.367Z,2.10
2019-03-28T21:22:44.438Z,2.10
2019-03-28T21:25:12.496Z,1.80
2019-03-28T21:27:40.558Z,2.67
2019-03-28T21:30:08.601Z,1.70
2019-03-28T21:32:36.649Z,2.12
2019-03-28T21:35:05.634Z,2.92
2019-03-28T21:37:33.661Z,1.70
2019-03-28T21:40:01.828Z,2.45
2019-03-28T21:42:29.940Z,2.00
2019-03-28T21:44:58.449Z,1.92
2019-03-28T21:47:26.708Z,2.10
2019-03-28T21:49:54.745Z,1.98
2019-03-28T21:52:22.835Z,3.62
2019-03-28T21:54:51.942Z,3.08
2019-03-28T21:57:19.963Z,2.35
2019-03-28T21:59:48.302Z,3.60
2019-03-28T22:02:17.023Z,2.17
2019-03-28T22:04:45.073Z,1.80
2019-03-28T22:07:13.093Z,2.52
2019-03-28T22:09:41.212Z,2.10
2019-03-28T22:12:09.235Z,2.08
2019-03-28T22:14:37.371Z,1.70
2019-03-28T22:17:05.400Z,5.25
2019-03-28T22:19:33.460Z,2.98
2019-03-28T22:22:02.098Z,2.62
2019-03-28T22:24:30.422Z,3.25
2019-03-28T22:26:58.443Z,2.27
2019-03-28T22:29:26.455Z,3.30
2019-03-28T22:31:54.490Z,2.25
2019-03-28T22:34:22.506Z,3.22
2019-03-28T22:36:57.275Z,2.37
2019-03-28T22:39:20.288Z,2.87
2019-03-28T22:41:48.944Z,3.83
2019-03-28T22:44:17.124Z,2.60
2019-03-28T22:46:45.164Z,2.25
2019-03-28T22:49:13.267Z,2.00
2019-03-28T22:51:41.371Z,2.10
2019-03-28T22:54:09.395Z,2.17
2019-03-28T22:56:37.455Z,2.08
2019-03-28T22:59:05.462Z,3.02
2019-03-28T23:01:33.497Z,2.20
2019-03-28T23:04:01.561Z,2.20
2019-03-28T23:06:29.609Z,1.82
2019-03-28T23:08:58.280Z,2.00
2019-03-28T23:11:27.156Z,2.12
2019-03-28T23:13:55.237Z,2.37
2019-03-28T23:16:23.253Z,3.00
2019-03-28T23:18:51.511Z,1.80
2019-03-28T23:21:19.532Z,1.95
2019-03-28T23:23:47.562Z,1.80
2019-03-28T23:26:15.759Z,2.92
2019-03-28T23:28:44.215Z,2.70
2019-03-28T23:31:12.868Z,2.00
2019-03-28T23:33:40.922Z,1.70
2019-03-28T23:36:08.927Z,1.75
2019-03-28T23:38:38.610Z,1.60
2019-03-28T23:41:06.772Z,1.80
2019-03-28T23:43:35.878Z,2.22
2019-03-28T23:46:04.176Z,2.33
2019-03-28T23:48:32.209Z,1.98
2019-03-28T23:51:00.216Z,1.77
2019-03-28T23:53:28.272Z,1.95
2019-03-28T23:55:56.276Z,1.70
2019-03-28T23:58:24.334Z,1.70
